sensor_id;sensor_type;location;lat;lon;timestamp;P1;durP1;ratioP1;P2;durP2;ratioP2
56319;SDS011;42226;42.382;23.748;2022-08-21T00:01:51;7.15;;;3.60;;
56319;SDS011;42226;42.382;23.748;2022-08-21T00:04:18;7.43;;;4.10;;
56319;SDS011;42226;42.382;23.748;2022-08-21T00:06:45;8.45;;;3.72;;
56319;SDS011;42226;42.382;23.748;2022-08-21T00:09:12;6.43;;;4.10;;
56319;SDS011;42226;42.382;23.748;2022-08-21T00:11:38;7.55;;;3.80;;
56319;SDS011;42226;42.382;23.748;2022-08-21T00:14:07;8.77;;;4.07;;
56319;SDS011;42226;42.382;23.748;2022-08-21T00:16:35;7.75;;;4.72;;
56319;SDS011;42226;42.382;23.748;2022-08-21T00:19:03;7.35;;;3.70;;
56319;SDS011;42226;42.382;23.748;2022-08-21T00:21:31;11.55;;;3.70;;
56319;SDS011;42226;42.382;23.748;2022-08-21T00:23:59;8.52;;;3.35;;
56319;SDS011;42226;42.382;23.748;2022-08-21T00:26:27;10.50;;;4.53;;
56319;SDS011;42226;42.382;23.748;2022-08-21T00:28:54;6.57;;;3.40;;
56319;SDS011;42226;42.382;23.748;2022-08-21T00:31:20;10.85;;;3.85;;
56319;SDS011;42226;42.382;23.748;2022-08-21T00:33:47;8.82;;;3.60;;
56319;SDS011;42226;42.382;23.748;2022-08-21T00:36:14;6.85;;;3.50;;
56319;SDS011;42226;42.382;23.748;2022-08-21T00:38:42;7.80;;;4.03;;
56319;SDS011;42226;42.382;23.748;2022-08-21T00:41:09;4.50;;;3.50;;
56319;SDS011;42226;42.382;23.748;2022-08-21T00:43:38;8.65;;;4.10;;
56319;SDS011;42226;42.382;23.748;2022-08-21T00:46:05;8.57;;;3.83;;
56319;SDS011;42226;42.382;23.748;2022-08-21T00:48:33;6.65;;;3.47;;
56319;SDS011;42226;42.382;23.748;2022-08-21T00:51:05;7.32;;;3.40;;
56319;SDS011;42226;42.382;23.748;2022-08-21T00:53:55;9.20;;;3.53;;
56319;SDS011;42226;42.382;23.748;2022-08-21T00:56:27;7.60;;;3.47;;
56319;SDS011;42226;42.382;23.748;2022-08-21T00:58:55;6.25;;;3.33;;
56319;SDS011;42226;42.382;23.748;2022-08-21T01:01:25;7.22;;;3.47;;
56319;SDS011;42226;42.382;23.748;2022-08-21T01:03:52;7.13;;;3.47;;
56319;SDS011;42226;42.382;23.748;2022-08-21T01:06:19;7.53;;;3.33;;
56319;SDS011;42226;42.382;23.748;2022-08-21T01:08:46;8.05;;;3.38;;
56319;SDS011;42226;42.382;23.748;2022-08-21T01:11:16;6.70;;;3.75;;
56319;SDS011;42226;42.382;23.748;2022-08-21T01:13:43;13.63;;;4.43;;
56319;SDS011;42226;42.382;23.748;2022-08-21T01:16:13;9.45;;;3.20;;
56319;SDS011;42226;42.382;23.748;2022-08-21T01:18:44;8.15;;;3.70;;
56319;SDS011;42226;42.382;23.748;2022-08-21T01:21:20;7.75;;;3.90;;
56319;SDS011;42226;42.382;23.748;2022-08-21T01:23:51;7.00;;;3.25;;
56319;SDS011;42226;42.382;23.748;2022-08-21T01:26:22;5.65;;;3.60;;
56319;SDS011;42226;42.382;23.748;2022-08-21T01:31:52;8.00;;;3.70;;
56319;SDS011;42226;42.382;23.748;2022-08-21T01:34:19;9.07;;;3.85;;
56319;SDS011;42226;42.382;23.748;2022-08-21T01:36:46;6.30;;;3.70;;
56319;SDS011;42226;42.382;23.748;2022-08-21T01:39:13;10.15;;;4.07;;
56319;SDS011;42226;42.382;23.748;2022-08-21T01:41:41;7.43;;;3.75;;
56319;SDS011;42226;42.382;23.748;2022-08-21T01:44:08;7.13;;;3.50;;
56319;SDS011;42226;42.382;23.748;2022-08-21T01:46:35;8.82;;;3.42;;
56319;SDS011;42226;42.382;23.748;2022-08-21T01:49:02;5.93;;;3.42;;
56319;SDS011;42226;42.382;23.748;2022-08-21T01:51:30;6.70;;;3.50;;
56319;SDS011;42226;42.382;23.748;2022-08-21T01:53:57;6.25;;;3.58;;
56319;SDS011;42226;42.382;23.748;2022-08-21T01:56:24;9.32;;;5.05;;
56319;SDS011;42226;42.382;23.748;2022-08-21T01:58:52;7.40;;;3.60;;
56319;SDS011;42226;42.382;23.748;2022-08-21T02:01:19;7.28;;;3.38;;
56319;SDS011;42226;42.382;23.748;2022-08-21T02:03:46;7.28;;;3.47;;
56319;SDS011;42226;42.382;23.748;2022-08-21T02:06:14;5.82;;;3.05;;
56319;SDS011;42226;42.382;23.748;2022-08-21T02:08:42;8.88;;;3.42;;
56319;SDS011;42226;42.382;23.748;2022-08-21T02:11:10;5.78;;;3.33;;
56319;SDS011;42226;42.382;23.748;2022-08-21T02:13:37;5.88;;;3.45;;
56319;SDS011;42226;42.382;23.748;2022-08-21T02:16:04;6.30;;;3.30;;
56319;SDS011;42226;42.382;23.748;2022-08-21T02:18:31;7.45;;;3.45;;
56319;SDS011;42226;42.382;23.748;2022-08-21T02:20:58;7.32;;;3.55;;
56319;SDS011;42226;42.382;23.748;2022-08-21T02:23:25;5.40;;;3.42;;
56319;SDS011;42226;42.382;23.748;2022-08-21T02:25:53;7.30;;;3.30;;
56319;SDS011;42226;42.382;23.748;2022-08-21T02:28:27;6.78;;;3.33;;
56319;SDS011;42226;42.382;23.748;2022-08-21T02:30:55;6.40;;;3.20;;
56319;SDS011;42226;42.382;23.748;2022-08-21T02:33:23;8.05;;;3.63;;
56319;SDS011;42226;42.382;23.748;2022-08-21T02:35:51;9.32;;;3.80;;
56319;SDS011;42226;42.382;23.748;2022-08-21T02:38:19;5.75;;;3.40;;
56319;SDS011;42226;42.382;23.748;2022-08-21T02:40:50;7.93;;;4.75;;
56319;SDS011;42226;42.382;23.748;2022-08-21T02:43:19;6.20;;;3.35;;
56319;SDS011;42226;42.382;23.748;2022-08-21T02:45:48;7.63;;;3.72;;
56319;SDS011;42226;42.382;23.748;2022-08-21T02:48:18;6.40;;;3.38;;
56319;SDS011;42226;42.382;23.748;2022-08-21T02:50:53;8.00;;;3.65;;
56319;SDS011;42226;42.382;23.748;2022-08-21T02:53:23;9.67;;;3.60;;
56319;SDS011;42226;42.382;23.748;2022-08-21T02:55:51;6.80;;;3.20;;
56319;SDS011;42226;42.382;23.748;2022-08-21T02:58:24;8.45;;;3.80;;
56319;SDS011;42226;42.382;23.748;2022-08-21T03:00:56;6.32;;;3.22;;
56319;SDS011;42226;42.382;23.748;2022-08-21T03:03:24;5.85;;;3.83;;
56319;SDS011;42226;42.382;23.748;2022-08-21T03:05:52;6.00;;;3.50;;
56319;SDS011;42226;42.382;23.748;2022-08-21T03:08:20;8.13;;;3.70;;
56319;SDS011;42226;42.382;23.748;2022-08-21T03:10:48;6.35;;;3.28;;
56319;SDS011;42226;42.382;23.748;2022-08-21T03:13:18;5.53;;;3.70;;
56319;SDS011;42226;42.382;23.748;2022-08-21T03:15:48;8.45;;;3.58;;
56319;SDS011;42226;42.382;23.748;2022-08-21T03:18:16;8.63;;;3.20;;
56319;SDS011;42226;42.382;23.748;2022-08-21T03:20:44;9.25;;;3.75;;
56319;SDS011;42226;42.382;23.748;2022-08-21T03:23:11;5.65;;;3.35;;
56319;SDS011;42226;42.382;23.748;2022-08-21T03:25:39;5.20;;;3.70;;
56319;SDS011;42226;42.382;23.748;2022-08-21T03:28:08;10.20;;;4.95;;
56319;SDS011;42226;42.382;23.748;2022-08-21T03:30:46;5.38;;;3.78;;
56319;SDS011;42226;42.382;23.748;2022-08-21T03:33:16;7.88;;;3.90;;
56319;SDS011;42226;42.382;23.748;2022-08-21T03:35:44;6.30;;;3.60;;
56319;SDS011;42226;42.382;23.748;2022-08-21T03:38:14;6.60;;;3.92;;
56319;SDS011;42226;42.382;23.748;2022-08-21T03:40:41;9.40;;;4.30;;
56319;SDS011;42226;42.382;23.748;2022-08-21T03:43:08;7.72;;;3.63;;
56319;SDS011;42226;42.382;23.748;2022-08-21T03:45:37;7.80;;;4.00;;
56319;SDS011;42226;42.382;23.748;2022-08-21T03:48:05;6.75;;;4.13;;
56319;SDS011;42226;42.382;23.748;2022-08-21T03:50:34;7.20;;;3.42;;
56319;SDS011;42226;42.382;23.748;2022-08-21T03:53:04;7.07;;;4.55;;
56319;SDS011;42226;42.382;23.748;2022-08-21T03:55:31;8.35;;;3.95;;
56319;SDS011;42226;42.382;23.748;2022-08-21T03:57:58;8.32;;;4.63;;
56319;SDS011;42226;42.382;23.748;2022-08-21T04:00:25;5.47;;;3.42;;
56319;SDS011;42226;42.382;23.748;2022-08-21T04:02:52;4.90;;;3.65;;
56319;SDS011;42226;42.382;23.748;2022-08-21T04:05:19;7.38;;;3.53;;
56319;SDS011;42226;42.382;23.748;2022-08-21T04:07:56;6.00;;;3.65;;
56319;SDS011;42226;42.382;23.748;2022-08-21T04:10:29;7.82;;;3.70;;
56319;SDS011;42226;42.382;23.748;2022-08-21T04:12:59;10.80;;;3.97;;
56319;SDS011;42226;42.382;23.748;2022-08-21T04:15:27;5.32;;;3.58;;
56319;SDS011;42226;42.382;23.748;2022-08-21T04:17:54;6.95;;;3.70;;
56319;SDS011;42226;42.382;23.748;2022-08-21T04:20:21;8.00;;;3.50;;
56319;SDS011;42226;42.382;23.748;2022-08-21T04:22:48;6.07;;;3.60;;
56319;SDS011;42226;42.382;23.748;2022-08-21T04:25:16;8.57;;;3.70;;
56319;SDS011;42226;42.382;23.748;2022-08-21T04:27:45;7.70;;;3.90;;
56319;SDS011;42226;42.382;23.748;2022-08-21T04:30:13;8.02;;;3.85;;
56319;SDS011;42226;42.382;23.748;2022-08-21T04:32:42;5.50;;;3.88;;
56319;SDS011;42226;42.382;23.748;2022-08-21T04:35:16;6.78;;;4.18;;
56319;SDS011;42226;42.382;23.748;2022-08-21T04:37:48;8.13;;;4.70;;
56319;SDS011;42226;42.382;23.748;2022-08-21T04:40:16;7.35;;;4.78;;
56319;SDS011;42226;42.382;23.748;2022-08-21T04:42:50;9.68;;;4.38;;
56319;SDS011;42226;42.382;23.748;2022-08-21T04:45:26;8.80;;;4.72;;
56319;SDS011;42226;42.382;23.748;2022-08-21T04:47:57;4.55;;;3.90;;
56319;SDS011;42226;42.382;23.748;2022-08-21T04:50:28;6.03;;;3.67;;
56319;SDS011;42226;42.382;23.748;2022-08-21T04:53:22;5.40;;;4.25;;
56319;SDS011;42226;42.382;23.748;2022-08-21T04:56:27;7.72;;;4.60;;
56319;SDS011;42226;42.382;23.748;2022-08-21T04:59:02;9.00;;;4.53;;
56319;SDS011;42226;42.382;23.748;2022-08-21T05:01:35;7.25;;;4.20;;
56319;SDS011;42226;42.382;23.748;2022-08-21T05:04:04;7.88;;;3.92;;
56319;SDS011;42226;42.382;23.748;2022-08-21T05:06:35;8.80;;;4.30;;
56319;SDS011;42226;42.382;23.748;2022-08-21T05:09:04;6.88;;;4.97;;
56319;SDS011;42226;42.382;23.748;2022-08-21T05:11:31;7.15;;;4.82;;
56319;SDS011;42226;42.382;23.748;2022-08-21T05:13:59;6.93;;;4.20;;
56319;SDS011;42226;42.382;23.748;2022-08-21T05:16:26;5.63;;;4.22;;
56319;SDS011;42226;42.382;23.748;2022-08-21T05:18:53;7.93;;;4.60;;
56319;SDS011;42226;42.382;23.748;2022-08-21T05:21:20;6.55;;;4.25;;
56319;SDS011;42226;42.382;23.748;2022-08-21T05:23:47;7.50;;;5.05;;
56319;SDS011;42226;42.382;23.748;2022-08-21T05:26:14;7.68;;;4.80;;
56319;SDS011;42226;42.382;23.748;2022-08-21T05:28:40;6.60;;;4.53;;
56319;SDS011;42226;42.382;23.748;2022-08-21T05:31:07;6.25;;;4.57;;
56319;SDS011;42226;42.382;23.748;2022-08-21T05:33:34;9.73;;;5.57;;
56319;SDS011;42226;42.382;23.748;2022-08-21T05:36:01;6.32;;;4.68;;
56319;SDS011;42226;42.382;23.748;2022-08-21T05:38:28;7.82;;;4.97;;
56319;SDS011;42226;42.382;23.748;2022-08-21T05:40:55;6.68;;;4.20;;
56319;SDS011;42226;42.382;23.748;2022-08-21T05:43:21;6.97;;;4.50;;
56319;SDS011;42226;42.382;23.748;2022-08-21T05:45:48;7.18;;;4.25;;
56319;SDS011;42226;42.382;23.748;2022-08-21T05:48:16;7.93;;;4.10;;
56319;SDS011;42226;42.382;23.748;2022-08-21T05:50:48;4.72;;;4.07;;
56319;SDS011;42226;42.382;23.748;2022-08-21T05:53:17;5.43;;;4.10;;
56319;SDS011;42226;42.382;23.748;2022-08-21T05:55:45;6.00;;;3.85;;
56319;SDS011;42226;42.382;23.748;2022-08-21T05:58:16;5.55;;;3.60;;
56319;SDS011;42226;42.382;23.748;2022-08-21T06:00:45;7.20;;;4.07;;
56319;SDS011;42226;42.382;23.748;2022-08-21T06:03:15;8.23;;;3.85;;
56319;SDS011;42226;42.382;23.748;2022-08-21T06:05:49;8.25;;;4.60;;
56319;SDS011;42226;42.382;23.748;2022-08-21T06:08:18;6.35;;;4.30;;
56319;SDS011;42226;42.382;23.748;2022-08-21T06:10:46;5.65;;;4.47;;
56319;SDS011;42226;42.382;23.748;2022-08-21T06:13:15;6.82;;;4.45;;
56319;SDS011;42226;42.382;23.748;2022-08-21T06:15:42;7.25;;;4.53;;
56319;SDS011;42226;42.382;23.748;2022-08-21T06:18:10;8.63;;;4.65;;
56319;SDS011;42226;42.382;23.748;2022-08-21T06:20:37;15.98;;;5.13;;
56319;SDS011;42226;42.382;23.748;2022-08-21T06:23:05;6.00;;;4.80;;
56319;SDS011;42226;42.382;23.748;2022-08-21T06:25:32;5.72;;;4.57;;
56319;SDS011;42226;42.382;23.748;2022-08-21T06:28:03;5.43;;;4.53;;
56319;SDS011;42226;42.382;23.748;2022-08-21T06:30:33;7.05;;;4.35;;
56319;SDS011;42226;42.382;23.748;2022-08-21T06:33:01;8.25;;;4.82;;
56319;SDS011;42226;42.382;23.748;2022-08-21T06:35:29;8.35;;;4.78;;
56319;SDS011;42226;42.382;23.748;2022-08-21T06:37:56;7.75;;;4.70;;
56319;SDS011;42226;42.382;23.748;2022-08-21T06:40:23;7.20;;;4.50;;
56319;SDS011;42226;42.382;23.748;2022-08-21T06:42:51;7.18;;;4.70;;
56319;SDS011;42226;42.382;23.748;2022-08-21T06:45:18;7.80;;;4.47;;
56319;SDS011;42226;42.382;23.748;2022-08-21T06:47:46;6.22;;;4.25;;
56319;SDS011;42226;42.382;23.748;2022-08-21T06:50:13;8.45;;;4.78;;
56319;SDS011;42226;42.382;23.748;2022-08-21T06:52:40;9.23;;;4.70;;
56319;SDS011;42226;42.382;23.748;2022-08-21T06:55:07;6.75;;;4.15;;
56319;SDS011;42226;42.382;23.748;2022-08-21T06:57:36;7.43;;;4.50;;
56319;SDS011;42226;42.382;23.748;2022-08-21T07:00:03;8.90;;;4.63;;
56319;SDS011;42226;42.382;23.748;2022-08-21T07:02:31;7.60;;;4.10;;
56319;SDS011;42226;42.382;23.748;2022-08-21T07:04:58;7.57;;;3.90;;
56319;SDS011;42226;42.382;23.748;2022-08-21T07:07:26;6.38;;;4.47;;
56319;SDS011;42226;42.382;23.748;2022-08-21T07:09:52;8.77;;;4.20;;
56319;SDS011;42226;42.382;23.748;2022-08-21T07:12:19;8.07;;;4.35;;
56319;SDS011;42226;42.382;23.748;2022-08-21T07:14:46;8.05;;;4.45;;
56319;SDS011;42226;42.382;23.748;2022-08-21T07:17:13;8.77;;;3.95;;
56319;SDS011;42226;42.382;23.748;2022-08-21T07:19:40;7.30;;;4.53;;
56319;SDS011;42226;42.382;23.748;2022-08-21T07:22:07;8.13;;;5.20;;
56319;SDS011;42226;42.382;23.748;2022-08-21T07:24:34;5.90;;;4.32;;
56319;SDS011;42226;42.382;23.748;2022-08-21T07:27:00;6.88;;;5.10;;
56319;SDS011;42226;42.382;23.748;2022-08-21T07:29:27;6.80;;;4.20;;
56319;SDS011;42226;42.382;23.748;2022-08-21T07:31:54;7.18;;;4.32;;
56319;SDS011;42226;42.382;23.748;2022-08-21T07:34:21;6.45;;;4.47;;
56319;SDS011;42226;42.382;23.748;2022-08-21T07:36:48;9.25;;;4.82;;
56319;SDS011;42226;42.382;23.748;2022-08-21T07:39:15;7.93;;;4.35;;
56319;SDS011;42226;42.382;23.748;2022-08-21T07:41:41;6.60;;;4.30;;
56319;SDS011;42226;42.382;23.748;2022-08-21T07:44:08;10.40;;;4.55;;
56319;SDS011;42226;42.382;23.748;2022-08-21T07:46:35;7.55;;;4.60;;
56319;SDS011;42226;42.382;23.748;2022-08-21T07:49:02;7.32;;;4.50;;
56319;SDS011;42226;42.382;23.748;2022-08-21T07:51:28;6.97;;;4.55;;
56319;SDS011;42226;42.382;23.748;2022-08-21T07:53:56;5.97;;;4.35;;
56319;SDS011;42226;42.382;23.748;2022-08-21T07:56:24;5.90;;;4.22;;
56319;SDS011;42226;42.382;23.748;2022-08-21T07:58:52;9.27;;;4.50;;
56319;SDS011;42226;42.382;23.748;2022-08-21T08:01:19;7.03;;;4.63;;
56319;SDS011;42226;42.382;23.748;2022-08-21T08:03:46;7.05;;;4.35;;
56319;SDS011;42226;42.382;23.748;2022-08-21T08:06:13;7.57;;;4.78;;
56319;SDS011;42226;42.382;23.748;2022-08-21T08:08:42;5.13;;;4.35;;
56319;SDS011;42226;42.382;23.748;2022-08-21T08:11:09;8.35;;;4.70;;
56319;SDS011;42226;42.382;23.748;2022-08-21T08:13:41;6.53;;;5.07;;
56319;SDS011;42226;42.382;23.748;2022-08-21T08:16:15;8.70;;;5.00;;
56319;SDS011;42226;42.382;23.748;2022-08-21T08:18:44;6.03;;;4.63;;
56319;SDS011;42226;42.382;23.748;2022-08-21T08:21:14;6.78;;;5.00;;
56319;SDS011;42226;42.382;23.748;2022-08-21T08:23:44;7.85;;;4.50;;
56319;SDS011;42226;42.382;23.748;2022-08-21T08:26:11;6.63;;;4.25;;
56319;SDS011;42226;42.382;23.748;2022-08-21T08:28:42;7.55;;;4.63;;
56319;SDS011;42226;42.382;23.748;2022-08-21T08:31:11;7.70;;;4.70;;
56319;SDS011;42226;42.382;23.748;2022-08-21T08:33:39;7.95;;;5.25;;
56319;SDS011;42226;42.382;23.748;2022-08-21T08:36:11;7.43;;;4.85;;
56319;SDS011;42226;42.382;23.748;2022-08-21T08:38:40;9.27;;;4.93;;
56319;SDS011;42226;42.382;23.748;2022-08-21T08:41:13;7.95;;;5.07;;
56319;SDS011;42226;42.382;23.748;2022-08-21T08:43:51;6.85;;;4.75;;
56319;SDS011;42226;42.382;23.748;2022-08-21T08:49:15;7.63;;;4.88;;
56319;SDS011;42226;42.382;23.748;2022-08-21T08:52:11;7.38;;;5.00;;
56319;SDS011;42226;42.382;23.748;2022-08-21T08:57:32;8.27;;;4.90;;
56319;SDS011;42226;42.382;23.748;2022-08-21T09:00:01;9.10;;;5.15;;
56319;SDS011;42226;42.382;23.748;2022-08-21T09:02:38;7.18;;;5.13;;
56319;SDS011;42226;42.382;23.748;2022-08-21T09:05:07;6.78;;;4.60;;
56319;SDS011;42226;42.382;23.748;2022-08-21T09:10:39;8.60;;;5.25;;
56319;SDS011;42226;42.382;23.748;2022-08-21T09:13:46;7.22;;;5.03;;
56319;SDS011;42226;42.382;23.748;2022-08-21T09:16:46;6.32;;;5.15;;
56319;SDS011;42226;42.382;23.748;2022-08-21T09:27:26;7.22;;;4.88;;
56319;SDS011;42226;42.382;23.748;2022-08-21T09:29:53;6.40;;;4.70;;
56319;SDS011;42226;42.382;23.748;2022-08-21T09:32:23;5.60;;;5.00;;
56319;SDS011;42226;42.382;23.748;2022-08-21T09:34:57;6.55;;;4.82;;
56319;SDS011;42226;42.382;23.748;2022-08-21T09:37:53;7.15;;;4.50;;
56319;SDS011;42226;42.382;23.748;2022-08-21T09:45:37;8.43;;;5.22;;
56319;SDS011;42226;42.382;23.748;2022-08-21T09:50:45;6.82;;;4.65;;
56319;SDS011;42226;42.382;23.748;2022-08-21T09:53:26;5.47;;;4.50;;
56319;SDS011;42226;42.382;23.748;2022-08-21T09:56:02;6.65;;;4.82;;
56319;SDS011;42226;42.382;23.748;2022-08-21T09:58:59;6.60;;;4.78;;
56319;SDS011;42226;42.382;23.748;2022-08-21T10:01:26;8.07;;;5.30;;
56319;SDS011;42226;42.382;23.748;2022-08-21T10:04:03;6.68;;;4.75;;
56319;SDS011;42226;42.382;23.748;2022-08-21T10:06:33;7.60;;;5.00;;
56319;SDS011;42226;42.382;23.748;2022-08-21T10:09:04;8.15;;;4.95;;
56319;SDS011;42226;42.382;23.748;2022-08-21T10:11:42;5.82;;;4.20;;
56319;SDS011;42226;42.382;23.748;2022-08-21T10:15:12;7.05;;;4.95;;
56319;SDS011;42226;42.382;23.748;2022-08-21T10:21:05;8.32;;;5.07;;
56319;SDS011;42226;42.382;23.748;2022-08-21T10:26:48;8.45;;;5.15;;
56319;SDS011;42226;42.382;23.748;2022-08-21T10:35:31;7.20;;;5.63;;
56319;SDS011;42226;42.382;23.748;2022-08-21T10:38:58;7.53;;;5.43;;
56319;SDS011;42226;42.382;23.748;2022-08-21T10:45:24;8.85;;;5.55;;
56319;SDS011;42226;42.382;23.748;2022-08-21T10:47:53;7.38;;;4.95;;
56319;SDS011;42226;42.382;23.748;2022-08-21T10:55:59;8.23;;;5.50;;
56319;SDS011;42226;42.382;23.748;2022-08-21T10:58:45;9.20;;;5.35;;
56319;SDS011;42226;42.382;23.748;2022-08-21T11:01:46;7.85;;;5.75;;
56319;SDS011;42226;42.382;23.748;2022-08-21T11:04:30;6.55;;;5.38;;
56319;SDS011;42226;42.382;23.748;2022-08-21T11:07:11;9.60;;;6.25;;
56319;SDS011;42226;42.382;23.748;2022-08-21T11:13:17;8.18;;;5.90;;
56319;SDS011;42226;42.382;23.748;2022-08-21T11:16:12;8.80;;;5.85;;
56319;SDS011;42226;42.382;23.748;2022-08-21T11:19:05;8.32;;;5.28;;
56319;SDS011;42226;42.382;23.748;2022-08-21T11:21:41;7.55;;;5.45;;
56319;SDS011;42226;42.382;23.748;2022-08-21T11:30:06;6.15;;;5.55;;
56319;SDS011;42226;42.382;23.748;2022-08-21T11:35:54;7.07;;;5.68;;
56319;SDS011;42226;42.382;23.748;2022-08-21T11:38:34;7.75;;;5.70;;
56319;SDS011;42226;42.382;23.748;2022-08-21T11:43:53;9.55;;;5.85;;
56319;SDS011;42226;42.382;23.748;2022-08-21T11:46:49;8.85;;;6.10;;
56319;SDS011;42226;42.382;23.748;2022-08-21T11:55:38;9.45;;;6.22;;
56319;SDS011;42226;42.382;23.748;2022-08-21T11:58:51;7.10;;;6.40;;
56319;SDS011;42226;42.382;23.748;2022-08-21T12:01:32;7.18;;;5.93;;
56319;SDS011;42226;42.382;23.748;2022-08-21T12:04:16;7.70;;;5.93;;
56319;SDS011;42226;42.382;23.748;2022-08-21T12:06:56;8.38;;;6.55;;
56319;SDS011;42226;42.382;23.748;2022-08-21T12:09:35;7.35;;;5.88;;
56319;SDS011;42226;42.382;23.748;2022-08-21T12:12:06;7.63;;;6.18;;
56319;SDS011;42226;42.382;23.748;2022-08-21T12:17:21;8.40;;;6.28;;
56319;SDS011;42226;42.382;23.748;2022-08-21T12:20:02;7.38;;;6.55;;
56319;SDS011;42226;42.382;23.748;2022-08-21T12:22:54;8.68;;;6.32;;
56319;SDS011;42226;42.382;23.748;2022-08-21T12:26:24;10.07;;;6.68;;
56319;SDS011;42226;42.382;23.748;2022-08-21T12:28:43;9.45;;;7.15;;
56319;SDS011;42226;42.382;23.748;2022-08-21T12:31:17;9.65;;;6.95;;
56319;SDS011;42226;42.382;23.748;2022-08-21T12:33:51;11.95;;;7.90;;
56319;SDS011;42226;42.382;23.748;2022-08-21T12:36:38;11.70;;;7.32;;
56319;SDS011;42226;42.382;23.748;2022-08-21T12:39:17;9.63;;;6.80;;
56319;SDS011;42226;42.382;23.748;2022-08-21T12:41:59;8.57;;;6.90;;
56319;SDS011;42226;42.382;23.748;2022-08-21T12:47:15;8.30;;;6.72;;
56319;SDS011;42226;42.382;23.748;2022-08-21T12:50:11;8.32;;;6.60;;
56319;SDS011;42226;42.382;23.748;2022-08-21T12:52:55;8.98;;;6.95;;
56319;SDS011;42226;42.382;23.748;2022-08-21T12:55:49;9.30;;;6.60;;
56319;SDS011;42226;42.382;23.748;2022-08-21T12:58:24;8.55;;;6.65;;
56319;SDS011;42226;42.382;23.748;2022-08-21T13:01:13;9.48;;;6.90;;
56319;SDS011;42226;42.382;23.748;2022-08-21T13:03:59;7.90;;;6.75;;
56319;SDS011;42226;42.382;23.748;2022-08-21T13:06:39;9.50;;;7.00;;
56319;SDS011;42226;42.382;23.748;2022-08-21T13:09:10;7.05;;;6.35;;
56319;SDS011;42226;42.382;23.748;2022-08-21T13:11:43;7.20;;;6.50;;
56319;SDS011;42226;42.382;23.748;2022-08-21T13:14:31;7.32;;;6.57;;
56319;SDS011;42226;42.382;23.748;2022-08-21T13:17:05;8.57;;;6.57;;
56319;SDS011;42226;42.382;23.748;2022-08-21T13:19:33;7.95;;;7.13;;
56319;SDS011;42226;42.382;23.748;2022-08-21T13:22:00;9.73;;;7.18;;
56319;SDS011;42226;42.382;23.748;2022-08-21T13:24:35;9.35;;;6.75;;
56319;SDS011;42226;42.382;23.748;2022-08-21T13:27:02;9.57;;;6.63;;
56319;SDS011;42226;42.382;23.748;2022-08-21T13:29:40;7.45;;;6.68;;
56319;SDS011;42226;42.382;23.748;2022-08-21T13:32:13;10.30;;;6.40;;
56319;SDS011;42226;42.382;23.748;2022-08-21T13:34:50;8.45;;;6.22;;
56319;SDS011;42226;42.382;23.748;2022-08-21T13:37:18;8.27;;;6.63;;
56319;SDS011;42226;42.382;23.748;2022-08-21T13:39:51;11.75;;;8.48;;
56319;SDS011;42226;42.382;23.748;2022-08-21T13:42:18;9.23;;;6.90;;
56319;SDS011;42226;42.382;23.748;2022-08-21T13:44:46;8.52;;;6.95;;
56319;SDS011;42226;42.382;23.748;2022-08-21T13:47:14;7.78;;;6.80;;
56319;SDS011;42226;42.382;23.748;2022-08-21T13:49:45;8.55;;;6.95;;
56319;SDS011;42226;42.382;23.748;2022-08-21T13:52:20;8.45;;;6.85;;
56319;SDS011;42226;42.382;23.748;2022-08-21T13:54:55;8.48;;;6.80;;
56319;SDS011;42226;42.382;23.748;2022-08-21T13:57:27;7.93;;;6.97;;
56319;SDS011;42226;42.382;23.748;2022-08-21T14:00:15;11.88;;;6.95;;
56319;SDS011;42226;42.382;23.748;2022-08-21T14:02:50;9.35;;;6.93;;
56319;SDS011;42226;42.382;23.748;2022-08-21T14:05:22;9.55;;;6.82;;
56319;SDS011;42226;42.382;23.748;2022-08-21T14:08:29;12.10;;;7.45;;
56319;SDS011;42226;42.382;23.748;2022-08-21T14:10:59;8.68;;;7.63;;
56319;SDS011;42226;42.382;23.748;2022-08-21T14:16:03;9.32;;;6.85;;
56319;SDS011;42226;42.382;23.748;2022-08-21T14:18:48;11.77;;;7.50;;
56319;SDS011;42226;42.382;23.748;2022-08-21T14:21:29;12.07;;;8.07;;
56319;SDS011;42226;42.382;23.748;2022-08-21T14:26:36;12.00;;;8.63;;
56319;SDS011;42226;42.382;23.748;2022-08-21T14:29:13;9.63;;;8.65;;
56319;SDS011;42226;42.382;23.748;2022-08-21T14:31:42;12.73;;;8.80;;
56319;SDS011;42226;42.382;23.748;2022-08-21T14:34:15;9.48;;;8.35;;
56319;SDS011;42226;42.382;23.748;2022-08-21T14:36:43;13.23;;;9.30;;
56319;SDS011;42226;42.382;23.748;2022-08-21T14:39:10;11.35;;;9.07;;
56319;SDS011;42226;42.382;23.748;2022-08-21T14:41:37;10.73;;;8.82;;
56319;SDS011;42226;42.382;23.748;2022-08-21T14:44:04;13.25;;;10.95;;
56319;SDS011;42226;42.382;23.748;2022-08-21T14:46:32;9.73;;;8.75;;
56319;SDS011;42226;42.382;23.748;2022-08-21T14:49:01;9.98;;;8.77;;
56319;SDS011;42226;42.382;23.748;2022-08-21T14:51:29;12.05;;;9.30;;
56319;SDS011;42226;42.382;23.748;2022-08-21T14:53:56;9.88;;;8.18;;
56319;SDS011;42226;42.382;23.748;2022-08-21T14:56:23;11.02;;;8.75;;
56319;SDS011;42226;42.382;23.748;2022-08-21T14:58:51;11.38;;;9.05;;
56319;SDS011;42226;42.382;23.748;2022-08-21T15:01:19;9.80;;;8.80;;
56319;SDS011;42226;42.382;23.748;2022-08-21T15:03:47;12.98;;;8.63;;
56319;SDS011;42226;42.382;23.748;2022-08-21T15:06:15;9.80;;;8.65;;
56319;SDS011;42226;42.382;23.748;2022-08-21T15:08:43;10.85;;;9.73;;
56319;SDS011;42226;42.382;23.748;2022-08-21T15:11:11;11.15;;;9.15;;
56319;SDS011;42226;42.382;23.748;2022-08-21T15:13:42;10.15;;;8.95;;
56319;SDS011;42226;42.382;23.748;2022-08-21T15:16:10;9.88;;;8.98;;
56319;SDS011;42226;42.382;23.748;2022-08-21T15:18:38;10.95;;;9.35;;
56319;SDS011;42226;42.382;23.748;2022-08-21T15:21:07;13.80;;;9.60;;
56319;SDS011;42226;42.382;23.748;2022-08-21T15:23:34;12.05;;;9.27;;
56319;SDS011;42226;42.382;23.748;2022-08-21T15:26:00;10.68;;;9.43;;
56319;SDS011;42226;42.382;23.748;2022-08-21T15:28:28;11.32;;;9.20;;
56319;SDS011;42226;42.382;23.748;2022-08-21T15:30:54;10.38;;;8.90;;
56319;SDS011;42226;42.382;23.748;2022-08-21T15:33:21;9.70;;;8.50;;
56319;SDS011;42226;42.382;23.748;2022-08-21T15:35:48;11.07;;;9.20;;
56319;SDS011;42226;42.382;23.748;2022-08-21T15:38:15;9.77;;;8.85;;
56319;SDS011;42226;42.382;23.748;2022-08-21T15:44:17;9.98;;;7.97;;
56319;SDS011;42226;42.382;23.748;2022-08-21T15:49:51;11.60;;;9.13;;
56319;SDS011;42226;42.382;23.748;2022-08-21T15:52:18;10.77;;;8.40;;
56319;SDS011;42226;42.382;23.748;2022-08-21T15:54:59;8.95;;;7.82;;
56319;SDS011;42226;42.382;23.748;2022-08-21T15:57:26;9.77;;;7.82;;
56319;SDS011;42226;42.382;23.748;2022-08-21T15:59:55;10.57;;;7.18;;
56319;SDS011;42226;42.382;23.748;2022-08-21T16:05:25;9.85;;;6.93;;
56319;SDS011;42226;42.382;23.748;2022-08-21T16:07:52;9.13;;;7.15;;
56319;SDS011;42226;42.382;23.748;2022-08-21T16:10:22;10.07;;;7.15;;
56319;SDS011;42226;42.382;23.748;2022-08-21T16:12:51;9.43;;;6.88;;
56319;SDS011;42226;42.382;23.748;2022-08-21T16:15:27;9.85;;;6.95;;
56319;SDS011;42226;42.382;23.748;2022-08-21T16:17:54;8.60;;;6.85;;
56319;SDS011;42226;42.382;23.748;2022-08-21T16:20:23;8.50;;;7.30;;
56319;SDS011;42226;42.382;23.748;2022-08-21T16:26:34;8.98;;;6.93;;
56319;SDS011;42226;42.382;23.748;2022-08-21T16:29:04;7.05;;;6.35;;
56319;SDS011;42226;42.382;23.748;2022-08-21T16:31:32;10.63;;;6.55;;
56319;SDS011;42226;42.382;23.748;2022-08-21T16:33:59;7.30;;;6.20;;
56319;SDS011;42226;42.382;23.748;2022-08-21T16:36:27;9.55;;;7.10;;